sensor_id;sensor_type;location;lat;lon;timestamp;pressure;altitude;pressure_sealevel;temperature;humidity
55490;BME280;44029;52.956;4.772;2022-10-22T00:01:51;100932.91;;;15.38;100.00
55490;BME280;44029;52.956;4.772;2022-10-22T00:04:16;100931.28;;;15.37;100.00
55490;BME280;44029;52.956;4.772;2022-10-22T00:06:42;100933.22;;;15.36;100.00
55490;BME280;44029;52.956;4.772;2022-10-22T00:09:10;100926.84;;;15.36;100.00
55490;BME280;44029;52.956;4.772;2022-10-22T00:11:36;100938.19;;;15.34;100.00
55490;BME280;44029;52.956;4.772;2022-10-22T00:14:01;100938.50;;;15.22;100.00
55490;BME280;44029;52.956;4.772;2022-10-22T00:16:27;100945.94;;;15.22;100.00
55490;BME280;44029;52.956;4.772;2022-10-22T00:18:52;100943.75;;;15.14;100.00
55490;BME280;44029;52.956;4.772;2022-10-22T00:21:17;100932.69;;;15.19;100.00
55490;BME280;44029;52.956;4.772;2022-10-22T00:23:43;100942.38;;;15.11;100.00
55490;BME280;44029;52.956;4.772;2022-10-22T00:26:09;100942.91;;;15.18;100.00
55490;BME280;44029;52.956;4.772;2022-10-22T00:28:34;100936.84;;;15.16;100.00
55490;BME280;44029;52.956;4.772;2022-10-22T00:31:00;100944.00;;;15.17;100.00
55490;BME280;44029;52.956;4.772;2022-10-22T00:33:26;100950.88;;;15.25;100.00
55490;BME280;44029;52.956;4.772;2022-10-22T00:35:52;100943.75;;;15.19;100.00
55490;BME280;44029;52.956;4.772;2022-10-22T00:38:17;100949.78;;;15.26;100.00
55490;BME280;44029;52.956;4.772;2022-10-22T00:40:43;100948.16;;;15.20;100.00
55490;BME280;44029;52.956;4.772;2022-10-22T00:43:13;100950.06;;;15.30;100.00
55490;BME280;44029;52.956;4.772;2022-10-22T00:45:39;100941.28;;;15.07;100.00
55490;BME280;44029;52.956;4.772;2022-10-22T00:48:13;100949.25;;;15.29;100.00
55490;BME280;44029;52.956;4.772;2022-10-22T00:53:13;100956.72;;;15.18;100.00
55490;BME280;44029;52.956;4.772;2022-10-22T00:55:40;100962.22;;;15.23;100.00
55490;BME280;44029;52.956;4.772;2022-10-22T00:58:07;100959.75;;;15.12;100.00
55490;BME280;44029;52.956;4.772;2022-10-22T01:00:33;100958.63;;;15.23;100.00
55490;BME280;44029;52.956;4.772;2022-10-22T01:02:58;100961.16;;;15.14;100.00
55490;BME280;44029;52.956;4.772;2022-10-22T01:05:39;100962.19;;;15.28;100.00
55490;BME280;44029;52.956;4.772;2022-10-22T01:08:11;100962.78;;;15.20;100.00
55490;BME280;44029;52.956;4.772;2022-10-22T01:10:44;100966.09;;;14.97;100.00
55490;BME280;44029;52.956;4.772;2022-10-22T01:13:32;100973.28;;;15.08;100.00
55490;BME280;44029;52.956;4.772;2022-10-22T01:18:37;100971.63;;;15.12;100.00
55490;BME280;44029;52.956;4.772;2022-10-22T01:21:25;100963.38;;;14.86;100.00
55490;BME280;44029;52.956;4.772;2022-10-22T01:29:42;100974.09;;;14.93;100.00
55490;BME280;44029;52.956;4.772;2022-10-22T01:32:17;100977.97;;;14.92;100.00
55490;BME280;44029;52.956;4.772;2022-10-22T01:34:53;100984.59;;;14.91;100.00
55490;BME280;44029;52.956;4.772;2022-10-22T01:37:22;100981.84;;;15.01;100.00
55490;BME280;44029;52.956;4.772;2022-10-22T01:39:49;100983.47;;;15.02;100.00
55490;BME280;44029;52.956;4.772;2022-10-22T01:42:15;100978.81;;;14.98;100.00
55490;BME280;44029;52.956;4.772;2022-10-22T01:44:41;100980.72;;;15.02;100.00
55490;BME280;44029;52.956;4.772;2022-10-22T01:47:13;100975.50;;;15.21;100.00
55490;BME280;44029;52.956;4.772;2022-10-22T01:49:49;100973.81;;;15.20;100.00
55490;BME280;44029;52.956;4.772;2022-10-22T01:55:28;100965.22;;;15.32;100.00
55490;BME280;44029;52.956;4.772;2022-10-22T01:58:02;100960.88;;;15.11;100.00
55490;BME280;44029;52.956;4.772;2022-10-22T02:00:37;100963.88;;;15.24;100.00
55490;BME280;44029;52.956;4.772;2022-10-22T02:03:13;100957.25;;;15.31;100.00
55490;BME280;44029;52.956;4.772;2022-10-22T02:05:45;100969.66;;;15.28;100.00
55490;BME280;44029;52.956;4.772;2022-10-22T02:08:16;100960.00;;;15.31;100.00
55490;BME280;44029;52.956;4.772;2022-10-22T02:10:45;100960.28;;;15.29;100.00
55490;BME280;44029;52.956;4.772;2022-10-22T02:13:24;100960.53;;;15.38;100.00
55490;BME280;44029;52.956;4.772;2022-10-22T02:15:51;100953.38;;;15.32;100.00
55490;BME280;44029;52.956;4.772;2022-10-22T02:18:23;100951.69;;;15.41;100.00
55490;BME280;44029;52.956;4.772;2022-10-22T02:20:52;100951.69;;;15.36;100.00
55490;BME280;44029;52.956;4.772;2022-10-22T02:23:19;100955.00;;;15.38;100.00
55490;BME280;44029;52.956;4.772;2022-10-22T02:25:48;100956.13;;;15.42;100.00
55490;BME280;44029;52.956;4.772;2022-10-22T02:28:23;100954.44;;;15.51;100.00
55490;BME280;44029;52.956;4.772;2022-10-22T02:30:53;100950.56;;;15.47;100.00
55490;BME280;44029;52.956;4.772;2022-10-22T02:33:22;100952.25;;;15.43;100.00
55490;BME280;44029;52.956;4.772;2022-10-22T02:35:50;100959.16;;;15.40;100.00
55490;BME280;44029;52.956;4.772;2022-10-22T02:38:16;100955.53;;;15.45;100.00
55490;BME280;44029;52.956;4.772;2022-10-22T02:40:43;100948.94;;;15.41;100.00
55490;BME280;44029;52.956;4.772;2022-10-22T02:43:08;100947.56;;;15.38;100.00
55490;BME280;44029;52.956;4.772;2022-10-22T02:45:34;100953.06;;;15.43;100.00
55490;BME280;44029;52.956;4.772;2022-10-22T02:48:00;100943.13;;;15.42;100.00
55490;BME280;44029;52.956;4.772;2022-10-22T02:50:26;100945.09;;;15.37;100.00
55490;BME280;44029;52.956;4.772;2022-10-22T02:52:51;100937.34;;;15.39;100.00
55490;BME280;44029;52.956;4.772;2022-10-22T02:55:17;100944.28;;;15.36;100.00
55490;BME280;44029;52.956;4.772;2022-10-22T02:57:42;100942.88;;;15.28;100.00
55490;BME280;44029;52.956;4.772;2022-10-22T03:00:08;100939.56;;;15.37;100.00
55490;BME280;44029;52.956;4.772;2022-10-22T03:02:34;100948.97;;;15.25;100.00
55490;BME280;44029;52.956;4.772;2022-10-22T03:04:59;100943.75;;;15.19;100.00
55490;BME280;44029;52.956;4.772;2022-10-22T03:07:25;100943.75;;;15.19;100.00
55490;BME280;44029;52.956;4.772;2022-10-22T03:09:50;100948.72;;;15.17;100.00
55490;BME280;44029;52.956;4.772;2022-10-22T03:12:15;100953.97;;;15.18;100.00
55490;BME280;44029;52.956;4.772;2022-10-22T03:14:41;100953.13;;;15.18;100.00
55490;BME280;44029;52.956;4.772;2022-10-22T03:17:06;100951.47;;;15.17;100.00
55490;BME280;44029;52.956;4.772;2022-10-22T03:19:31;100944.00;;;15.17;100.00
55490;BME280;44029;52.956;4.772;2022-10-22T03:22:07;100946.50;;;15.24;100.00
55490;BME280;44029;52.956;4.772;2022-10-22T03:24:40;100953.66;;;15.25;100.00
55490;BME280;44029;52.956;4.772;2022-10-22T03:27:07;100944.00;;;15.17;100.00
55490;BME280;44029;52.956;4.772;2022-10-22T03:29:35;100957.25;;;15.20;100.00
55490;BME280;44029;52.956;4.772;2022-10-22T03:32:01;100953.41;;;15.11;100.00
55490;BME280;44029;52.956;4.772;2022-10-22T03:34:26;100964.44;;;15.11;100.00
55490;BME280;44029;52.956;4.772;2022-10-22T03:36:52;100950.94;;;15.10;100.00
55490;BME280;44029;52.956;4.772;2022-10-22T03:39:19;100959.19;;;15.15;100.00
55490;BME280;44029;52.956;4.772;2022-10-22T03:41:46;100952.88;;;15.14;100.00
55490;BME280;44029;52.956;4.772;2022-10-22T03:44:12;100962.22;;;15.13;100.00
55490;BME280;44029;52.956;4.772;2022-10-22T03:46:39;100961.69;;;15.11;100.00
55490;BME280;44029;52.956;4.772;2022-10-22T03:49:04;100970.50;;;15.08;100.00
55490;BME280;44029;52.956;4.772;2022-10-22T03:51:30;100981.56;;;15.13;100.00
55490;BME280;44029;52.956;4.772;2022-10-22T03:53:55;100980.19;;;15.11;100.00
55490;BME280;44029;52.956;4.772;2022-10-22T03:56:21;100983.75;;;15.16;100.00
55490;BME280;44029;52.956;4.772;2022-10-22T03:58:46;100978.53;;;15.10;100.00
55490;BME280;44029;52.956;4.772;2022-10-22T04:01:12;100981.00;;;15.21;100.00
55490;BME280;44029;52.956;4.772;2022-10-22T04:03:38;100975.19;;;15.23;100.00
55490;BME280;44029;52.956;4.772;2022-10-22T04:06:06;100973.81;;;15.31;100.00
55490;BME280;44029;52.956;4.772;2022-10-22T04:08:32;100967.75;;;15.23;100.00
55490;BME280;44029;52.956;4.772;2022-10-22T04:10:58;100974.38;;;15.22;100.00
55490;BME280;44029;52.956;4.772;2022-10-22T04:13:23;100977.66;;;15.24;100.00
55490;BME280;44029;52.956;4.772;2022-10-22T04:15:48;100972.72;;;15.21;100.00
55490;BME280;44029;52.956;4.772;2022-10-22T04:18:16;100977.66;;;15.30;100.00
55490;BME280;44029;52.956;4.772;2022-10-22T04:20:42;100976.31;;;15.22;100.00
55490;BME280;44029;52.956;4.772;2022-10-22T04:23:07;100977.13;;;15.17;100.00
55490;BME280;44029;52.956;4.772;2022-10-22T04:25:33;100984.31;;;15.23;100.00
55490;BME280;44029;52.956;4.772;2022-10-22T04:27:58;100979.34;;;15.15;100.00
55490;BME280;44029;52.956;4.772;2022-10-22T04:30:23;100975.50;;;15.16;100.00
55490;BME280;44029;52.956;4.772;2022-10-22T04:32:48;100972.41;;;15.23;100.00
55490;BME280;44029;52.956;4.772;2022-10-22T04:35:14;100976.03;;;15.18;100.00
55490;BME280;44029;52.956;4.772;2022-10-22T04:37:39;100977.94;;;15.23;100.00
55490;BME280;44029;52.956;4.772;2022-10-22T04:40:05;100982.66;;;15.22;100.00
55490;BME280;44029;52.956;4.772;2022-10-22T04:42:30;100985.69;;;15.26;100.00
55490;BME280;44029;52.956;4.772;2022-10-22T04:44:56;100975.72;;;15.30;100.00
55490;BME280;44029;52.956;4.772;2022-10-22T04:47:21;100973.25;;;15.34;100.00
55490;BME280;44029;52.956;4.772;2022-10-22T04:49:46;100983.72;;;15.26;100.00
55490;BME280;44029;52.956;4.772;2022-10-22T04:52:12;100983.47;;;15.33;100.00
55490;BME280;44029;52.956;4.772;2022-10-22T04:54:37;100982.06;;;15.36;100.00
55490;BME280;44029;52.956;4.772;2022-10-22T04:57:02;100973.81;;;15.31;100.00
55490;BME280;44029;52.956;4.772;2022-10-22T04:59:28;100977.41;;;15.31;100.00
55490;BME280;44029;52.956;4.772;2022-10-22T05:01:53;100984.00;;;15.30;100.00
55490;BME280;44029;52.956;4.772;2022-10-22T05:04:18;100991.19;;;15.31;100.00
55490;BME280;44029;52.956;4.772;2022-10-22T05:06:44;100987.88;;;15.24;100.00
55490;BME280;44029;52.956;4.772;2022-10-22T05:09:13;100981.53;;;15.34;100.00
55490;BME280;44029;52.956;4.772;2022-10-22T05:11:40;100989.25;;;15.32;100.00
55490;BME280;44029;52.956;4.772;2022-10-22T05:14:09;100992.28;;;15.25;100.00
55490;BME280;44029;52.956;4.772;2022-10-22T05:16:35;100994.78;;;15.26;100.00
55490;BME280;44029;52.956;4.772;2022-10-22T05:19:03;100988.72;;;15.24;100.00
55490;BME280;44029;52.956;4.772;2022-10-22T05:21:29;100988.72;;;15.19;100.00
55490;BME280;44029;52.956;4.772;2022-10-22T05:23:57;100991.75;;;15.28;100.00
55490;BME280;44029;52.956;4.772;2022-10-22T05:26:24;100993.13;;;15.25;100.00
55490;BME280;44029;52.956;4.772;2022-10-22T05:28:50;100995.34;;;15.18;100.00
55490;BME280;44029;52.956;4.772;2022-10-22T05:31:16;100992.31;;;15.15;100.00
55490;BME280;44029;52.956;4.772;2022-10-22T05:33:43;100996.47;;;15.12;100.00
55490;BME280;44029;52.956;4.772;2022-10-22T05:36:12;101003.09;;;15.21;100.00
55490;BME280;44029;52.956;4.772;2022-10-22T05:38:38;101001.97;;;15.07;100.00
55490;BME280;44029;52.956;4.772;2022-10-22T05:41:07;100999.75;;;15.19;100.00
55490;BME280;44029;52.956;4.772;2022-10-22T05:43:33;101004.72;;;15.17;100.00
55490;BME280;44029;52.956;4.772;2022-10-22T05:46:03;100998.66;;;15.25;100.00
55490;BME280;44029;52.956;4.772;2022-10-22T05:48:29;101002.25;;;15.11;100.00
55490;BME280;44029;52.956;4.772;2022-10-22T05:50:55;101003.06;;;15.11;100.00
55490;BME280;44029;52.956;4.772;2022-10-22T05:53:21;101001.41;;;15.10;100.00
55490;BME280;44029;52.956;4.772;2022-10-22T05:55:46;101000.31;;;14.91;100.00
55490;BME280;44029;52.956;4.772;2022-10-22T05:58:12;100993.69;;;14.97;100.00
55490;BME280;44029;52.956;4.772;2022-10-22T06:00:37;101001.97;;;14.97;100.00
55490;BME280;44029;52.956;4.772;2022-10-22T06:03:03;101010.50;;;14.95;100.00
55490;BME280;44029;52.956;4.772;2022-10-22T06:05:28;101010.81;;;14.88;100.00
55490;BME280;44029;52.956;4.772;2022-10-22T06:07:54;101009.72;;;14.84;100.00
55490;BME280;44029;52.956;4.772;2022-10-22T06:10:20;101017.41;;;14.82;100.00
55490;BME280;44029;52.956;4.772;2022-10-22T06:12:46;101018.25;;;14.78;100.00
55490;BME280;44029;52.956;4.772;2022-10-22T06:15:14;101017.13;;;14.84;100.00
55490;BME280;44029;52.956;4.772;2022-10-22T06:17:40;101023.75;;;14.78;100.00
55490;BME280;44029;52.956;4.772;2022-10-22T06:20:06;101032.03;;;14.83;100.00
55490;BME280;44029;52.956;4.772;2022-10-22T06:22:32;101033.41;;;14.85;100.00
55490;BME280;44029;52.956;4.772;2022-10-22T06:24:57;101032.84;;;14.78;100.00
55490;BME280;44029;52.956;4.772;2022-10-22T06:27:23;101042.53;;;14.81;100.00
55490;BME280;44029;52.956;4.772;2022-10-22T06:29:48;101041.09;;;14.73;100.00
55490;BME280;44029;52.956;4.772;2022-10-22T06:32:13;101053.81;;;14.74;100.00
55490;BME280;44029;52.956;4.772;2022-10-22T06:34:39;101046.09;;;14.76;100.00
55490;BME280;44029;52.956;4.772;2022-10-22T06:37:04;101056.00;;;14.82;100.00
55490;BME280;44029;52.956;4.772;2022-10-22T06:39:29;101051.06;;;14.79;100.00
55490;BME280;44029;52.956;4.772;2022-10-22T06:41:55;101046.66;;;14.83;100.00
55490;BME280;44029;52.956;4.772;2022-10-22T06:44:20;101048.88;;;14.97;100.00
55490;BME280;44029;52.956;4.772;2022-10-22T06:46:48;101056.06;;;15.23;100.00
55490;BME280;44029;52.956;4.772;2022-10-22T06:49:16;101060.47;;;15.19;100.00
55490;BME280;44029;52.956;4.772;2022-10-22T06:51:42;101055.22;;;15.28;100.00
55490;BME280;44029;52.956;4.772;2022-10-22T06:54:07;101055.22;;;15.28;100.00
55490;BME280;44029;52.956;4.772;2022-10-22T06:56:33;101050.25;;;15.30;100.00
55490;BME280;44029;52.956;4.772;2022-10-22T06:58:58;101056.03;;;15.34;100.00
55490;BME280;44029;52.956;4.772;2022-10-22T07:01:27;101055.22;;;15.43;100.00
55490;BME280;44029;52.956;4.772;2022-10-22T07:03:53;101061.84;;;15.37;100.00
55490;BME280;44029;52.956;4.772;2022-10-22T07:06:20;101052.19;;;15.40;100.00
55490;BME280;44029;52.956;4.772;2022-10-22T07:08:45;101048.63;;;15.29;100.00
55490;BME280;44029;52.956;4.772;2022-10-22T07:11:19;101058.81;;;15.49;100.00
55490;BME280;44029;52.956;4.772;2022-10-22T07:13:46;101058.81;;;15.39;100.00
55490;BME280;44029;52.956;4.772;2022-10-22T07:16:12;101061.00;;;15.47;100.00
55490;BME280;44029;52.956;4.772;2022-10-22T07:18:39;101069.84;;;15.54;100.00
55490;BME280;44029;52.956;4.772;2022-10-22T07:21:06;101069.56;;;15.51;100.00
55490;BME280;44029;52.956;4.772;2022-10-22T07:23:31;101071.78;;;15.43;100.00
55490;BME280;44029;52.956;4.772;2022-10-22T07:25:57;101079.47;;;15.62;100.00
55490;BME280;44029;52.956;4.772;2022-10-22T07:28:23;101075.34;;;15.75;100.00
55490;BME280;44029;52.956;4.772;2022-10-22T07:30:48;101082.50;;;15.91;100.00
55490;BME280;44029;52.956;4.772;2022-10-22T07:33:14;101078.56;;;16.18;100.00
55490;BME280;44029;52.956;4.772;2022-10-22T07:35:39;101075.13;;;16.41;100.00
55490;BME280;44029;52.956;4.772;2022-10-22T07:38:06;101072.47;;;16.76;100.00
55490;BME280;44029;52.956;4.772;2022-10-22T07:40:32;101055.84;;;16.81;100.00
55490;BME280;44029;52.956;4.772;2022-10-22T07:42:58;101052.31;;;16.70;100.00
55490;BME280;44029;52.956;4.772;2022-10-22T07:45:24;101054.00;;;16.66;100.00
55490;BME280;44029;52.956;4.772;2022-10-22T07:47:49;101062.47;;;16.80;100.00
55490;BME280;44029;52.956;4.772;2022-10-22T07:50:15;101058.69;;;16.66;100.00
55490;BME280;44029;52.956;4.772;2022-10-22T07:52:40;101071.22;;;16.53;100.00
55490;BME280;44029;52.956;4.772;2022-10-22T07:55:06;101076.44;;;16.54;100.00
55490;BME280;44029;52.956;4.772;2022-10-22T07:57:32;101085.25;;;16.61;100.00
55490;BME280;44029;52.956;4.772;2022-10-22T07:59:57;101091.66;;;16.62;100.00
55490;BME280;44029;52.956;4.772;2022-10-22T08:02:24;101096.06;;;16.63;100.00
55490;BME280;44029;52.956;4.772;2022-10-22T08:04:49;101107.66;;;16.65;100.00
55490;BME280;44029;52.956;4.772;2022-10-22T08:07:15;101115.97;;;16.60;100.00
55490;BME280;44029;52.956;4.772;2022-10-22T08:09:41;101117.13;;;16.54;100.00
55490;BME280;44029;52.956;4.772;2022-10-22T08:12:06;101135.84;;;16.67;100.00
55490;BME280;44029;52.956;4.772;2022-10-22T08:14:32;101139.16;;;16.69;100.00
55490;BME280;44029;52.956;4.772;2022-10-22T08:16:57;101145.03;;;16.57;100.00
55490;BME280;44029;52.956;4.772;2022-10-22T08:19:22;101148.34;;;16.59;100.00
55490;BME280;44029;52.956;4.772;2022-10-22T08:21:48;101154.69;;;16.60;100.00
55490;BME280;44029;52.956;4.772;2022-10-22T08:24:13;101165.47;;;16.67;100.00
55490;BME280;44029;52.956;4.772;2022-10-22T08:26:40;101175.94;;;16.75;100.00
55490;BME280;44029;52.956;4.772;2022-10-22T08:29:05;101174.03;;;16.70;100.00
55490;BME280;44029;52.956;4.772;2022-10-22T08:31:31;101182.59;;;16.74;100.00
55490;BME280;44029;52.956;4.772;2022-10-22T08:33:56;101183.38;;;16.79;100.00
55490;BME280;44029;52.956;4.772;2022-10-22T08:36:22;101183.13;;;16.81;100.00
55490;BME280;44029;52.956;4.772;2022-10-22T08:38:47;101187.50;;;16.97;100.00
55490;BME280;44029;52.956;4.772;2022-10-22T08:41:17;101195.88;;;17.27;100.00
55490;BME280;44029;52.956;4.772;2022-10-22T08:44:17;101180.81;;;17.43;100.00
55490;BME280;44029;52.956;4.772;2022-10-22T08:46:53;101185.06;;;17.30;100.00
55490;BME280;44029;52.956;4.772;2022-10-22T08:49:32;101176.97;;;17.39;100.00
55490;BME280;44029;52.956;4.772;2022-10-22T08:51:59;101188.06;;;17.39;100.00
55490;BME280;44029;52.956;4.772;2022-10-22T08:54:36;101187.22;;;17.73;100.00
55490;BME280;44029;52.956;4.772;2022-10-22T08:57:11;101180.31;;;17.75;100.00
55490;BME280;44029;52.956;4.772;2022-10-22T08:59:46;101183.41;;;17.69;100.00
55490;BME280;44029;52.956;4.772;2022-10-22T09:05:58;101200.03;;;17.29;100.00
55490;BME280;44029;52.956;4.772;2022-10-22T09:08:26;101204.69;;;16.84;100.00
55490;BME280;44029;52.956;4.772;2022-10-22T09:10:57;101220.75;;;16.77;100.00
55490;BME280;44029;52.956;4.772;2022-10-22T09:13:25;101227.69;;;16.69;100.00
55490;BME280;44029;52.956;4.772;2022-10-22T09:16:00;101230.16;;;16.86;100.00
55490;BME280;44029;52.956;4.772;2022-10-22T09:26:43;101253.13;;;16.87;100.00
55490;BME280;44029;52.956;4.772;2022-10-22T09:29:17;101249.41;;;17.12;100.00
55490;BME280;44029;52.956;4.772;2022-10-22T09:31:44;101233.91;;;17.11;100.00
55490;BME280;44029;52.956;4.772;2022-10-22T09:34:14;101240.06;;;16.97;100.00
55490;BME280;44029;52.956;4.772;2022-10-22T09:36:39;101230.72;;;16.83;100.00
55490;BME280;44029;52.956;4.772;2022-10-22T09:39:21;101232.63;;;16.88;100.00
55490;BME280;44029;52.956;4.772;2022-10-22T09:41:47;101238.19;;;16.77;100.00
55490;BME280;44029;52.956;4.772;2022-10-22T09:44:12;101240.94;;;16.88;100.00
55490;BME280;44029;52.956;4.772;2022-10-22T09:46:38;101246.97;;;17.00;100.00
55490;BME280;44029;52.956;4.772;2022-10-22T09:49:12;101257.13;;;17.20;100.00
55490;BME280;44029;52.956;4.772;2022-10-22T09:52:17;101247.88;;;17.40;100.00
55490;BME280;44029;52.956;4.772;2022-10-22T09:57:12;101251.19;;;17.82;100.00
55490;BME280;44029;52.956;4.772;2022-10-22T09:59:41;101261.34;;;17.57;100.00
55490;BME280;44029;52.956;4.772;2022-10-22T10:02:27;101272.19;;;17.48;100.00
55490;BME280;44029;52.956;4.772;2022-10-22T10:04:54;101281.59;;;17.52;100.00
55490;BME280;44029;52.956;4.772;2022-10-22T10:07:23;101284.97;;;17.44;100.00
55490;BME280;44029;52.956;4.772;2022-10-22T10:09:50;101279.13;;;17.51;100.00
55490;BME280;44029;52.956;4.772;2022-10-22T10:15:19;101265.31;;;17.85;100.00
55490;BME280;44029;52.956;4.772;2022-10-22T10:20:44;101254.50;;;17.89;100.00
55490;BME280;44029;52.956;4.772;2022-10-22T10:23:23;101262.38;;;18.06;100.00
55490;BME280;44029;52.956;4.772;2022-10-22T10:39:33;101252.06;;;18.41;100.00
55490;BME280;44029;52.956;4.772;2022-10-22T10:42:20;101256.53;;;18.42;100.00
55490;BME280;44029;52.956;4.772;2022-10-22T10:45:08;101261.53;;;18.40;100.00
55490;BME280;44029;52.956;4.772;2022-10-22T10:53:32;101275.19;;;18.60;100.00
55490;BME280;44029;52.956;4.772;2022-10-22T10:56:34;101280.19;;;18.58;100.00
55490;BME280;44029;52.956;4.772;2022-10-22T11:07:03;101282.88;;;18.39;100.00
55490;BME280;44029;52.956;4.772;2022-10-22T11:09:36;101283.13;;;18.43;100.00
55490;BME280;44029;52.956;4.772;2022-10-22T11:12:10;101287.59;;;18.39;100.00
55490;BME280;44029;52.956;4.772;2022-10-22T11:15:02;101284.31;;;18.37;100.00
55490;BME280;44029;52.956;4.772;2022-10-22T11:17:37;101296.41;;;18.46;100.00
55490;BME280;44029;52.956;4.772;2022-10-22T11:20:26;101297.09;;;18.32;100.00
55490;BME280;44029;52.956;4.772;2022-10-22T11:23:06;101313.16;;;18.35;100.00
55490;BME280;44029;52.956;4.772;2022-10-22T11:25:38;101305.69;;;18.36;100.00
55490;BME280;44029;52.956;4.772;2022-10-22T11:28:16;101315.63;;;18.37;100.00
55490;BME280;44029;52.956;4.772;2022-10-22T11:30:47;101311.09;;;18.46;100.00
55490;BME280;44029;52.956;4.772;2022-10-22T11:33:17;101319.03;;;18.58;100.00
55490;BME280;44029;52.956;4.772;2022-10-22T11:35:45;101312.09;;;18.61;100.00
55490;BME280;44029;52.956;4.772;2022-10-22T11:38:14;101309.47;;;18.45;100.00
55490;BME280;44029;52.956;4.772;2022-10-22T11:40:59;101314.38;;;18.53;100.00
55490;BME280;44029;52.956;4.772;2022-10-22T11:43:33;101312.09;;;18.61;100.00
55490;BME280;44029;52.956;4.772;2022-10-22T11:51:38;101302.78;;;18.76;100.00
55490;BME280;44029;52.956;4.772;2022-10-22T12:02:39;101298.47;;;18.64;100.00
55490;BME280;44029;52.956;4.772;2022-10-22T12:05:18;101300.25;;;18.50;100.00
55490;BME280;44029;52.956;4.772;2022-10-22T12:07:56;101305.00;;;18.49;100.00
55490;BME280;44029;52.956;4.772;2022-10-22T12:10:29;101304.50;;;18.42;100.00
55490;BME280;44029;52.956;4.772;2022-10-22T12:13:11;101302.50;;;18.48;100.00
55490;BME280;44029;52.956;4.772;2022-10-22T12:15:46;101301.00;;;18.31;100.00
55490;BME280;44029;52.956;4.772;2022-10-22T12:18:12;101302.13;;;18.30;100.00
55490;BME280;44029;52.956;4.772;2022-10-22T12:20:38;101313.53;;;18.24;100.00
55490;BME280;44029;52.956;4.772;2022-10-22T12:23:04;101306.53;;;18.31;100.00
55490;BME280;44029;52.956;4.772;2022-10-22T12:25:30;101311.06;;;18.22;100.00
55490;BME280;44029;52.956;4.772;2022-10-22T12:27:58;101320.50;;;18.21;100.00
55490;BME280;44029;52.956;4.772;2022-10-22T12:30:33;101323.47;;;18.30;100.00
55490;BME280;44029;52.956;4.772;2022-10-22T12:33:02;101321.53;;;18.30;100.00
55490;BME280;44029;52.956;4.772;2022-10-22T12:35:32;101328.22;;;18.24;100.00
55490;BME280;44029;52.956;4.772;2022-10-22T12:38:01;101322.84;;;18.38;100.00
55490;BME280;44029;52.956;4.772;2022-10-22T12:40:29;101323.94;;;18.37;100.00
55490;BME280;44029;52.956;4.772;2022-10-22T12:42:58;101325.38;;;18.34;100.00
55490;BME280;44029;52.956;4.772;2022-10-22T12:45:32;101331.06;;;18.48;100.00
55490;BME280;44029;52.956;4.772;2022-10-22T12:48:00;101329.25;;;18.33;100.00
55490;BME280;44029;52.956;4.772;2022-10-22T12:50:48;101325.38;;;18.34;100.00
55490;BME280;44029;52.956;4.772;2022-10-22T12:55:51;101342.09;;;18.24;100.00
55490;BME280;44029;52.956;4.772;2022-10-22T12:58:29;101333.66;;;18.40;100.00
55490;BME280;44029;52.956;4.772;2022-10-22T13:00:58;101323.84;;;18.18;100.00
55490;BME280;44029;52.956;4.772;2022-10-22T13:03:33;101341.66;;;18.12;100.00
55490;BME280;44029;52.956;4.772;2022-10-22T13:08:43;101327.59;;;17.98;100.00
55490;BME280;44029;52.956;4.772;2022-10-22T13:11:10;101321.00;;;17.89;100.00
55490;BME280;44029;52.956;4.772;2022-10-22T13:16:20;101323.72;;;17.99;100.00
55490;BME280;44029;52.956;4.772;2022-10-22T13:18:48;101313.59;;;17.74;100.00
55490;BME280;44029;52.956;4.772;2022-10-22T13:21:40;101319.34;;;17.88;100.00
55490;BME280;44029;52.956;4.772;2022-10-22T13:24:20;101313.28;;;17.81;100.00
55490;BME280;44029;52.956;4.772;2022-10-22T13:26:51;101313.59;;;17.74;100.00
55490;BME280;44029;52.956;4.772;2022-10-22T13:29:18;101319.31;;;17.93;100.00
55490;BME280;44029;52.956;4.772;2022-10-22T13:31:47;101322.88;;;17.99;100.00
55490;BME280;44029;52.956;4.772;2022-10-22T13:34:20;101309.28;;;17.97;100.00
55490;BME280;44029;52.956;4.772;2022-10-22T13:36:47;101312.19;;;17.76;100.00
55490;BME280;44029;52.956;4.772;2022-10-22T13:39:21;101319.94;;;17.80;100.00
55490;BME280;44029;52.956;4.772;2022-10-22T13:41:47;101333.56;;;17.71;100.00
55490;BME280;44029;52.956;4.772;2022-10-22T13:44:15;101331.28;;;17.88;100.00
55490;BME280;44029;52.956;4.772;2022-10-22T13:46:41;101324.78;;;17.58;100.00
55490;BME280;44029;52.956;4.772;2022-10-22T13:49:18;101329.69;;;17.72;100.00
55490;BME280;44029;52.956;4.772;2022-10-22T13:51:44;101331.66;;;17.66;100.00
55490;BME280;44029;52.956;4.772;2022-10-22T13:54:16;101338.53;;;17.74;100.00
55490;BME280;44029;52.956;4.772;2022-10-22T13:56:43;101336.69;;;17.59;100.00
55490;BME280;44029;52.956;4.772;2022-10-22T13:59:09;101346.56;;;17.75;100.00
55490;BME280;44029;52.956;4.772;2022-10-22T14:01:35;101348.19;;;17.82;100.00
55490;BME280;44029;52.956;4.772;2022-10-22T14:04:03;101351.69;;;18.03;100.00
55490;BME280;44029;52.956;4.772;2022-10-22T14:06:30;101348.97;;;17.92;100.00
55490;BME280;44029;52.956;4.772;2022-10-22T14:09:02;101348.41;;;17.95;100.00
55490;BME280;44029;52.956;4.772;2022-10-22T14:11:28;101343.78;;;17.81;100.00
55490;BME280;44029;52.956;4.772;2022-10-22T14:13:55;101337.38;;;17.80;100.00